Hanjin Madrid — DHQS — position and weather

sailwx.info

Track history (hours):
 
Tides and Currents Weather Stations Pressure Air Temp Water Temp Dewpoint Dewpoint Depression Visibility Wind Speed Wind Dir Waves Ship Positions

Hanjin Madrid

Last reported at 2014-Sep-01 17:24 UTC. Time now 2014-Sep-01 18:53 UTC.
Position N 30°38' E 122°03'.

Length 278.9 m; beam 40.3 m; draft 14 m.

Type: Ship. MMSI: 211424430.

Date/timePositionNaut miles runAvg speedWind from/ knotsBaromVisibWave heightAir tempDewpointWater temp
2014-Sep-01 17:24N 30°38' E 122°03'0 0.0
2014-Sep-01 08:24N 30°38' E 122°03'0 0.0
2014-Sep-01 01:12N 30°38' E 122°03'0 0.0
2014-Sep-01 00:25N 30°38' E 122°03'3 3.4
2014-Aug-31 23:33N 30°36' E 122°06'1110.6
2014-Aug-31 22:33N 30°33' E 122°18'7 7.6
2014-Aug-31 21:33N 30°33' E 122°26'8 8.4
2014-Aug-31 20:33N 30°30' E 122°35'4 3.4
2014-Aug-31 19:24N 30°28' E 122°39'0 0.0
2014-Aug-31 18:30N 30°28' E 122°39'0 0.1
2014-Aug-31 17:30N 30°28' E 122°39'0 0.0
2014-Aug-31 16:24N 30°28' E 122°39'0 0.0
2014-Aug-31 15:30N 30°28' E 122°39'0 0.1
2014-Aug-31 14:24N 30°27' E 122°39'0 0.0
2014-Aug-31 13:30N 30°28' E 122°39'0 0.0
2014-Aug-31 12:30N 30°28' E 122°39'4 8.7
2014-Aug-31 12:00N 30°24' E 122°36'4 8.8 090 / 41010.0 5.4 28.019.624.0
2014-Aug-31 11:30N 30°27' E 122°39'0 0.1
2014-Aug-31 10:30N 30°27' E 122°39'0 0.0
2014-Aug-31 09:30N 30°27' E 122°39'0 0.1
2014-Aug-31 08:30N 30°27' E 122°39'2 2.0
2014-Aug-31 07:33N 30°28' E 122°41'1110.9
2014-Aug-31 06:33N 30°20' E 122°50'1513.4
2014-Aug-31 05:27N 30°05' E 122°49'1213.1
2014-Aug-31 04:32N 29°54' E 122°46'1413.4
2014-Aug-31 03:30N 29°42' E 122°37'1112.0
2014-Aug-31 02:33N 29°42' E 122°24'1111.0
2014-Aug-31 01:33N 29°49' E 122°14'1110.6
2014-Aug-31 00:33N 29°54' E 122°03'1 0.6
2014-Aug-30 23:29N 29°53' E 122°03'0 0.0
2014-Aug-30 22:29N 29°53' E 122°03'0 0.0
2014-Aug-30 21:32N 29°53' E 122°03'0 0.0
2014-Aug-30 20:30N 29°53' E 122°03'0 0.0
2014-Aug-30 19:29N 29°53' E 122°03'0 0.0
2014-Aug-30 18:29N 29°53' E 122°03'0 0.0
2014-Aug-30 17:29N 29°53' E 122°03'0 0.0
2014-Aug-30 16:29N 29°53' E 122°03'0 0.0
2014-Aug-30 15:29N 29°53' E 122°03'0 0.0
2014-Aug-30 14:29N 29°53' E 122°03'0 0.0
2014-Aug-30 13:29N 29°53' E 122°03'0 0.0
2014-Aug-30 12:29N 29°53' E 122°03'0 0.0
2014-Aug-30 11:29N 29°53' E 122°03'0 0.0
2014-Aug-30 10:29N 29°53' E 122°03'0 0.0
2014-Aug-30 09:29N 29°53' E 122°03'0 0.0
2014-Aug-30 08:29N 29°53' E 122°03'0 0.0
2014-Aug-30 07:29N 29°53' E 122°03'0 0.0
2014-Aug-30 06:29N 29°53' E 122°03'0 0.0
2014-Aug-30 05:29N 29°53' E 122°03'0 0.0
2014-Aug-30 04:29N 29°53' E 122°03'0 0.0
2014-Aug-30 03:30N 29°53' E 122°03'4 4.2
2014-Aug-30 02:34N 29°55' E 122°07'1212.1
2014-Aug-30 01:33N 29°47' E 122°17'5 4.6
2014-Aug-30 00:33N 29°44' E 122°21'5 5.3
2014-Aug-29 23:33N 29°39' E 122°22'0 0.2
2014-Aug-29 22:31N 29°39' E 122°21'0 0.0
2014-Aug-29 21:31N 29°39' E 122°21'0 0.0
2014-Aug-29 20:31N 29°39' E 122°21'0 0.0
2014-Aug-29 19:31N 29°39' E 122°21'0 0.0
2014-Aug-29 18:31N 29°39' E 122°21'0 0.0
2014-Aug-29 17:31N 29°39' E 122°21'0 0.0
2014-Aug-29 16:31N 29°39' E 122°21'0 0.0
2014-Aug-29 15:19N 29°39' E 122°21'0 0.0
2014-Aug-29 14:31N 29°39' E 122°21'0 0.0
2014-Aug-29 13:19N 29°39' E 122°21'0 0.0
2014-Aug-29 12:31N 29°39' E 122°21'4 7.8
2014-Aug-29 12:00N 29°36' E 122°18'4 7.1 140 / 11012.0 5.4 26.018.624.0
2014-Aug-29 11:25N 29°39' E 122°21'0 0.0
2014-Aug-29 10:31N 29°39' E 122°21'0 0.0
2014-Aug-29 09:31N 29°39' E 122°21'0 0.0
2014-Aug-29 08:31N 29°39' E 122°21'0 0.1
2014-Aug-29 07:31N 29°39' E 122°21'0 0.0
2014-Aug-29 06:31N 29°39' E 122°21'0 0.0
2014-Aug-29 05:31N 29°39' E 122°21'0 0.0
2014-Aug-29 04:31N 29°39' E 122°21'0 0.1
2014-Aug-29 03:31N 29°39' E 122°21'0 0.0
2014-Aug-29 02:31N 29°39' E 122°21'0 0.1
2014-Aug-29 01:25N 29°39' E 122°21'0 0.0
2014-Aug-29 00:25N 29°39' E 122°21'4 9.5
2014-Aug-29 00:00N 29°36' E 122°18'4 7.0 050 / 51013.0 1.1 27.019.424.0
2014-Aug-28 23:25N 29°39' E 122°21'0 0.0
2014-Aug-28 22:31N 29°39' E 122°21'0 0.1
2014-Aug-28 21:31N 29°39' E 122°21'0 0.1
2014-Aug-28 20:31N 29°39' E 122°21'0 0.1
2014-Aug-28 19:31N 29°39' E 122°21'0 0.0
2014-Aug-28 18:25N 29°39' E 122°21'0 0.0
2014-Aug-28 17:19N 29°39' E 122°21'0 0.0
2014-Aug-28 16:31N 29°39' E 122°21'0 0.0
2014-Aug-28 15:31N 29°39' E 122°21'0 0.0
2014-Aug-28 14:31N 29°39' E 122°21'0 0.0
2014-Aug-28 13:31N 29°39' E 122°21'0 0.0
2014-Aug-28 12:19N 29°39' E 122°21'412.4
2014-Aug-28 12:00N 29°36' E 122°18'4 2.7 999 / 41014.0 5.4 27.518.724.0
2014-Aug-28 10:31N 29°39' E 122°21'0 0.1
2014-Aug-28 09:31N 29°39' E 122°21'0 0.0
2014-Aug-28 08:31N 29°39' E 122°21'0 0.0
2014-Aug-28 07:25N 29°39' E 122°21'0 0.0
2014-Aug-28 06:19N 29°39' E 122°21'0 0.0
2014-Aug-28 05:31N 29°39' E 122°21'0 0.0
2014-Aug-28 04:31N 29°39' E 122°21'0 0.0
2014-Aug-28 03:25N 29°39' E 122°21'0 0.0
2014-Aug-28 02:25N 29°39' E 122°21'0 0.0
2014-Aug-28 01:25N 29°39' E 122°21'0 0.0
2014-Aug-28 00:25N 29°39' E 122°21'4 9.6
2014-Aug-28 00:00N 29°36' E 122°18'4 8.5 050 / 51013.0 5.4 27.024.324.1
2014-Aug-27 23:31N 29°39' E 122°21'0 0.1
2014-Aug-27 22:31N 29°39' E 122°21'0 0.1
2014-Aug-27 21:31N 29°39' E 122°21'0 0.1
2014-Aug-27 20:31N 29°39' E 122°21'0 0.0
2014-Aug-27 19:19N 29°39' E 122°21'0 0.0
2014-Aug-27 18:31N 29°39' E 122°21'0 0.1
2014-Aug-27 17:25N 29°39' E 122°21'0 0.1
2014-Aug-27 16:31N 29°39' E 122°21'0 0.0
2014-Aug-27 15:31N 29°39' E 122°21'0 0.0
2014-Aug-27 14:31N 29°39' E 122°21'0 0.0
2014-Aug-27 13:31N 29°39' E 122°21'0 0.0
2014-Aug-27 12:31N 29°39' E 122°21'4 7.8
2014-Aug-27 12:00N 29°36' E 122°18'4 6.0 110 / 121014.0 2.2 1.027.519.524.0
2014-Aug-27 11:19N 29°39' E 122°21'0 0.0
2014-Aug-27 08:31N 29°39' E 122°21'0 0.0
2014-Aug-27 07:19N 29°39' E 122°21'0 0.0
2014-Aug-27 06:31N 29°39' E 122°21'0 0.1
2014-Aug-27 05:33N 29°39' E 122°21'0 0.0
2014-Aug-27 04:31N 29°39' E 122°21'0 0.0
2014-Aug-27 03:25N 29°39' E 122°21'0 0.0
2014-Aug-27 02:31N 29°39' E 122°21'0 0.1
2014-Aug-27 01:31N 29°39' E 122°21'8 7.8
2014-Aug-27 00:32N 29°33' E 122°27'1713.5
2014-Aug-26 23:17N 29°16' E 122°29'29613.4
2014-Aug-26 01:11N 24°57' E 119°48'4718.1
2014-Aug-25 22:33N 24°28' E 119°07'1514.6
2014-Aug-25 21:33N 24°18' E 118°55'1414.1
2014-Aug-25 20:32N 24°08' E 118°44'1313.5
2014-Aug-25 19:34N 24°01' E 118°32'1313.4
2014-Aug-25 18:33N 23°52' E 118°21'1312.8
2014-Aug-25 17:33N 23°43' E 118°11'1413.5
2014-Aug-25 16:33N 23°34' E 117°60'1414.2
2014-Aug-25 15:33N 23°24' E 117°49'1515.1
2014-Aug-25 14:33N 23°12' E 117°38'2215.5
2014-Aug-25 13:08N 22°52' E 117°28'914.8
2014-Aug-25 12:33N 22°45' E 117°23'18214.5
2014-Aug-25 00:00N 20°06' E 115°48'25214.0 100 / 31008.010.8 0.530.023.927.0
2014-Aug-24 06:00N 16°24' E 113°42'9616.0 090 / 11009.010.8 35.022.628.0
2014-Aug-24 00:00N 15°00' E 112°54'5614.0 999 / 31007.310.8 29.022.827.0
2014-Aug-23 20:00N 14°12' E 112°24'   060 / 21009.010.8 0.528.024.627.0
Track history (hours):
 
Tides and Currents Weather Stations Pressure Air Temp Water Temp Dewpoint Dewpoint Depression Visibility Wind Speed Wind Dir Waves Ship Positions

Hanjin Madrid

Last reported at 2014-Sep-01 17:24 UTC. Time now 2014-Sep-01 18:53 UTC.
Position N 30°38' E 122°03'.

Length 278.9 m; beam 40.3 m; draft 14 m.

Type: Ship. MMSI: 211424430.

Date/timePositionNaut miles runAvg speedWind from/ knotsBaromVisibWave heightAir tempDewpointWater temp
2014-Sep-01 17:24N 30°38' E 122°03'0 0.0
2014-Sep-01 08:24N 30°38' E 122°03'0 0.0
2014-Sep-01 01:12N 30°38' E 122°03'0 0.0
2014-Sep-01 00:25N 30°38' E 122°03'3 3.4
2014-Aug-31 23:33N 30°36' E 122°06'1110.6
2014-Aug-31 22:33N 30°33' E 122°18'7 7.6
2014-Aug-31 21:33N 30°33' E 122°26'8 8.4
2014-Aug-31 20:33N 30°30' E 122°35'4 3.4
2014-Aug-31 19:24N 30°28' E 122°39'0 0.0
2014-Aug-31 18:30N 30°28' E 122°39'0 0.1
2014-Aug-31 17:30N 30°28' E 122°39'0 0.0
2014-Aug-31 16:24N 30°28' E 122°39'0 0.0
2014-Aug-31 15:30N 30°28' E 122°39'0 0.1
2014-Aug-31 14:24N 30°27' E 122°39'0 0.0
2014-Aug-31 13:30N 30°28' E 122°39'0 0.0
2014-Aug-31 12:30N 30°28' E 122°39'4 8.7
2014-Aug-31 12:00N 30°24' E 122°36'4 8.8 090 / 41010.0 5.4 28.019.624.0
2014-Aug-31 11:30N 30°27' E 122°39'0 0.1
2014-Aug-31 10:30N 30°27' E 122°39'0 0.0
2014-Aug-31 09:30N 30°27' E 122°39'0 0.1
2014-Aug-31 08:30N 30°27' E 122°39'2 2.0
2014-Aug-31 07:33N 30°28' E 122°41'1110.9
2014-Aug-31 06:33N 30°20' E 122°50'1513.4
2014-Aug-31 05:27N 30°05' E 122°49'1213.1
2014-Aug-31 04:32N 29°54' E 122°46'1413.4
2014-Aug-31 03:30N 29°42' E 122°37'1112.0
2014-Aug-31 02:33N 29°42' E 122°24'1111.0
2014-Aug-31 01:33N 29°49' E 122°14'1110.6
2014-Aug-31 00:33N 29°54' E 122°03'1 0.6
2014-Aug-30 23:29N 29°53' E 122°03'0 0.0
2014-Aug-30 22:29N 29°53' E 122°03'0 0.0
2014-Aug-30 21:32N 29°53' E 122°03'0 0.0
2014-Aug-30 20:30N 29°53' E 122°03'0 0.0
2014-Aug-30 19:29N 29°53' E 122°03'0 0.0
2014-Aug-30 18:29N 29°53' E 122°03'0 0.0
2014-Aug-30 17:29N 29°53' E 122°03'0 0.0
2014-Aug-30 16:29N 29°53' E 122°03'0 0.0
2014-Aug-30 15:29N 29°53' E 122°03'0 0.0
2014-Aug-30 14:29N 29°53' E 122°03'0 0.0
2014-Aug-30 13:29N 29°53' E 122°03'0 0.0
2014-Aug-30 12:29N 29°53' E 122°03'0 0.0
2014-Aug-30 11:29N 29°53' E 122°03'0 0.0
2014-Aug-30 10:29N 29°53' E 122°03'0 0.0
2014-Aug-30 09:29N 29°53' E 122°03'0 0.0
2014-Aug-30 08:29N 29°53' E 122°03'0 0.0
2014-Aug-30 07:29N 29°53' E 122°03'0 0.0
2014-Aug-30 06:29N 29°53' E 122°03'0 0.0
2014-Aug-30 05:29N 29°53' E 122°03'0 0.0
2014-Aug-30 04:29N 29°53' E 122°03'0 0.0
2014-Aug-30 03:30N 29°53' E 122°03'4 4.2
2014-Aug-30 02:34N 29°55' E 122°07'1212.1
2014-Aug-30 01:33N 29°47' E 122°17'5 4.6
2014-Aug-30 00:33N 29°44' E 122°21'5 5.3
2014-Aug-29 23:33N 29°39' E 122°22'0 0.2
2014-Aug-29 22:31N 29°39' E 122°21'0 0.0
2014-Aug-29 21:31N 29°39' E 122°21'0 0.0
2014-Aug-29 20:31N 29°39' E 122°21'0 0.0
2014-Aug-29 19:31N 29°39' E 122°21'0 0.0
2014-Aug-29 18:31N 29°39' E 122°21'0 0.0
2014-Aug-29 17:31N 29°39' E 122°21'0 0.0
2014-Aug-29 16:31N 29°39' E 122°21'0 0.0
2014-Aug-29 15:19N 29°39' E 122°21'0 0.0
2014-Aug-29 14:31N 29°39' E 122°21'0 0.0
2014-Aug-29 13:19N 29°39' E 122°21'0 0.0
2014-Aug-29 12:31N 29°39' E 122°21'4 7.8
2014-Aug-29 12:00N 29°36' E 122°18'4 7.1 140 / 11012.0 5.4 26.018.624.0
2014-Aug-29 11:25N 29°39' E 122°21'0 0.0
2014-Aug-29 10:31N 29°39' E 122°21'0 0.0
2014-Aug-29 09:31N 29°39' E 122°21'0 0.0
2014-Aug-29 08:31N 29°39' E 122°21'0 0.1
2014-Aug-29 07:31N 29°39' E 122°21'0 0.0
2014-Aug-29 06:31N 29°39' E 122°21'0 0.0
2014-Aug-29 05:31N 29°39' E 122°21'0 0.0
2014-Aug-29 04:31N 29°39' E 122°21'0 0.1
2014-Aug-29 03:31N 29°39' E 122°21'0 0.0
2014-Aug-29 02:31N 29°39' E 122°21'0 0.1
2014-Aug-29 01:25N 29°39' E 122°21'0 0.0
2014-Aug-29 00:25N 29°39' E 122°21'4 9.5
2014-Aug-29 00:00N 29°36' E 122°18'4 7.0 050 / 51013.0 1.1 27.019.424.0
2014-Aug-28 23:25N 29°39' E 122°21'0 0.0
2014-Aug-28 22:31N 29°39' E 122°21'0 0.1
2014-Aug-28 21:31N 29°39' E 122°21'0 0.1
2014-Aug-28 20:31N 29°39' E 122°21'0 0.1
2014-Aug-28 19:31N 29°39' E 122°21'0 0.0
2014-Aug-28 18:25N 29°39' E 122°21'0 0.0
2014-Aug-28 17:19N 29°39' E 122°21'0 0.0
2014-Aug-28 16:31N 29°39' E 122°21'0 0.0
2014-Aug-28 15:31N 29°39' E 122°21'0 0.0
2014-Aug-28 14:31N 29°39' E 122°21'0 0.0
2014-Aug-28 13:31N 29°39' E 122°21'0 0.0
2014-Aug-28 12:19N 29°39' E 122°21'412.4
2014-Aug-28 12:00N 29°36' E 122°18'4 2.7 999 / 41014.0 5.4 27.518.724.0
2014-Aug-28 10:31N 29°39' E 122°21'0 0.1
2014-Aug-28 09:31N 29°39' E 122°21'0 0.0
2014-Aug-28 08:31N 29°39' E 122°21'0 0.0
2014-Aug-28 07:25N 29°39' E 122°21'0 0.0
2014-Aug-28 06:19N 29°39' E 122°21'0 0.0
2014-Aug-28 05:31N 29°39' E 122°21'0 0.0
2014-Aug-28 04:31N 29°39' E 122°21'0 0.0
2014-Aug-28 03:25N 29°39' E 122°21'0 0.0
2014-Aug-28 02:25N 29°39' E 122°21'0 0.0
2014-Aug-28 01:25N 29°39' E 122°21'0 0.0
2014-Aug-28 00:25N 29°39' E 122°21'4 9.6
2014-Aug-28 00:00N 29°36' E 122°18'4 8.5 050 / 51013.0 5.4 27.024.324.1
2014-Aug-27 23:31N 29°39' E 122°21'0 0.1
2014-Aug-27 22:31N 29°39' E 122°21'0 0.1
2014-Aug-27 21:31N 29°39' E 122°21'0 0.1
2014-Aug-27 20:31N 29°39' E 122°21'0 0.0
2014-Aug-27 19:19N 29°39' E 122°21'0 0.0
2014-Aug-27 18:31N 29°39' E 122°21'0 0.1
2014-Aug-27 17:25N 29°39' E 122°21'0 0.1
2014-Aug-27 16:31N 29°39' E 122°21'0 0.0
2014-Aug-27 15:31N 29°39' E 122°21'0 0.0
2014-Aug-27 14:31N 29°39' E 122°21'0 0.0
2014-Aug-27 13:31N 29°39' E 122°21'0 0.0
2014-Aug-27 12:31N 29°39' E 122°21'4 7.8
2014-Aug-27 12:00N 29°36' E 122°18'4 6.0 110 / 121014.0 2.2 1.027.519.524.0
2014-Aug-27 11:19N 29°39' E 122°21'0 0.0
2014-Aug-27 08:31N 29°39' E 122°21'0 0.0
2014-Aug-27 07:19N 29°39' E 122°21'0 0.0
2014-Aug-27 06:31N 29°39' E 122°21'0 0.1
2014-Aug-27 05:33N 29°39' E 122°21'0 0.0
2014-Aug-27 04:31N 29°39' E 122°21'0 0.0
2014-Aug-27 03:25N 29°39' E 122°21'0 0.0
2014-Aug-27 02:31N 29°39' E 122°21'0 0.1
2014-Aug-27 01:31N 29°39' E 122°21'8 7.8
2014-Aug-27 00:32N 29°33' E 122°27'1713.5
2014-Aug-26 23:17N 29°16' E 122°29'29613.4
2014-Aug-26 01:11N 24°57' E 119°48'4718.1
2014-Aug-25 22:33N 24°28' E 119°07'1514.6
2014-Aug-25 21:33N 24°18' E 118°55'1414.1
2014-Aug-25 20:32N 24°08' E 118°44'1313.5
2014-Aug-25 19:34N 24°01' E 118°32'1313.4
2014-Aug-25 18:33N 23°52' E 118°21'1312.8
2014-Aug-25 17:33N 23°43' E 118°11'1413.5
2014-Aug-25 16:33N 23°34' E 117°60'1414.2
2014-Aug-25 15:33N 23°24' E 117°49'1515.1
2014-Aug-25 14:33N 23°12' E 117°38'2215.5
2014-Aug-25 13:08N 22°52' E 117°28'914.8
2014-Aug-25 12:33N 22°45' E 117°23'18214.5
2014-Aug-25 00:00N 20°06' E 115°48'25214.0 100 / 31008.010.8 0.530.023.927.0
2014-Aug-24 06:00N 16°24' E 113°42'9616.0 090 / 11009.010.8 35.022.628.0
2014-Aug-24 00:00N 15°00' E 112°54'5614.0 999 / 31007.310.8 29.022.827.0
2014-Aug-23 20:00N 14°12' E 112°24'   060 / 21009.010.8 0.528.024.627.0

Dump ship's entire track history